Time;durP1;ratioP1;P1;durP2;ratioP2;P2;SDS_P1;SDS_P2;PMS_P1;PMS_P2;Temp;Humidity;BMP_temperature;BMP_pressure;BME280_temperature;BME280_humidity;BME280_pressure;Samples;Min_cycle;Max_cycle;Signal;HPM_P1;HPM_P2
2022/02/08 00:01:14;;;;;;;10.90;3.27;;;3.60;97.30;;;;;;5012911;28;20215;-86
2022/02/08 00:03:40;;;;;;;13.17;3.53;;;3.50;97.30;;;;;;5012311;28;20842;-85
2022/02/08 00:06:22;;;;;;;12.87;4.87;;;3.50;97.30;;;;;;5016554;28;20201;-86
2022/02/08 00:08:47;;;;;;;10.80;3.57;;;3.40;97.30;;;;;;5012587;28;20876;-86
2022/02/08 00:11:13;;;;;;;12.20;4.10;;;3.30;97.30;;;;;;5011437;28;20416;-86
2022/02/08 00:13:39;;;;;;;10.33;3.53;;;3.20;97.30;;;;;;5011988;28;20182;-86
2022/02/08 00:16:04;;;;;;;13.23;3.47;;;3.20;97.30;;;;;;5012284;28;20556;-86
2022/02/08 00:18:30;;;;;;;13.27;3.27;;;3.20;97.30;;;;;;5012340;28;20705;-86
2022/02/08 00:20:56;;;;;;;22.00;4.00;;;3.10;97.30;;;;;;5011998;28;20420;-86
2022/02/08 00:23:21;;;;;;;15.07;3.53;;;3.10;97.30;;;;;;5012030;28;20189;-86
2022/02/08 00:25:47;;;;;;;9.40;3.30;;;3.00;97.30;;;;;;5012110;28;20209;-86
2022/02/08 00:28:12;;;;;;;5.40;3.60;;;3.00;97.30;;;;;;5013629;28;20647;-86
2022/02/08 00:30:38;;;;;;;14.47;3.70;;;3.00;97.30;;;;;;5012237;28;20177;-86
2022/02/08 00:33:03;;;;;;;15.83;3.13;;;3.00;97.30;;;;;;5011988;28;20204;-86
2022/02/08 00:35:29;;;;;;;12.73;3.07;;;3.00;97.30;;;;;;5012088;28;20220;-86
2022/02/08 00:37:54;;;;;;;10.43;3.07;;;2.90;97.30;;;;;;5011892;28;20185;-86
2022/02/08 00:40:21;;;;;;;12.57;3.40;;;2.90;97.30;;;;;;5012923;28;20205;-86
2022/02/08 00:42:47;;;;;;;11.23;3.10;;;2.90;97.30;;;;;;5011798;28;20243;-86
2022/02/08 00:47:42;;;;;;;7.40;2.70;;;2.80;97.30;;;;;;5013280;28;20439;-86
2022/02/08 00:50:10;;;;;;;11.30;3.20;;;2.80;97.30;;;;;;5011599;28;20198;-87
2022/02/08 00:52:38;;;;;;;7.23;2.80;;;2.80;97.30;;;;;;5011488;28;20424;-86
2022/02/08 00:55:08;;;;;;;3.80;2.87;;;2.70;97.30;;;;;;5011375;28;20427;-86
2022/02/08 00:57:33;;;;;;;9.37;3.20;;;2.70;97.30;;;;;;5011397;28;20420;-86
2022/02/08 00:59:59;;;;;;;10.70;3.10;;;2.70;97.30;;;;;;5009588;28;20794;-86
2022/02/08 01:02:25;;;;;;;16.43;4.10;;;2.70;97.30;;;;;;5010005;28;20208;-87
2022/02/08 01:04:57;;;;;;;5.10;2.80;;;2.70;97.30;;;;;;5008756;28;20214;-85
2022/02/08 01:07:23;;;;;;;11.90;3.17;;;2.70;97.30;;;;;;5009061;28;20945;-86
2022/02/08 01:09:55;;;;;;;5.73;3.47;;;2.60;97.30;;;;;;5008751;28;20435;-87
2022/02/08 01:12:22;;;;;;;10.57;3.90;;;2.60;97.30;;;;;;5009257;28;20482;-86
2022/02/08 01:14:50;;;;;;;16.43;3.23;;;2.60;97.30;;;;;;5012105;28;20428;-86
2022/02/08 01:17:17;;;;;;;15.67;4.00;;;2.60;97.30;;;;;;5014164;28;20447;-86
2022/02/08 01:19:51;;;;;;;15.70;3.90;;;2.60;97.30;;;;;;5010928;28;20436;-86
2022/02/08 01:22:17;;;;;;;8.67;3.53;;;2.60;97.30;;;;;;5010372;28;20488;-86
2022/02/08 01:24:45;;;;;;;16.23;3.93;;;2.60;97.30;;;;;;5010679;28;20460;-86
2022/02/08 01:27:11;;;;;;;8.40;3.83;;;2.60;97.30;;;;;;5010998;28;20602;-85
2022/02/08 01:32:31;;;;;;;13.00;4.90;;;2.60;97.30;;;;;;5012026;28;20485;-86
2022/02/08 01:35:09;;;;;;;7.67;3.70;;;2.60;97.30;;;;;;5011036;28;20412;-86
2022/02/08 01:38:00;;;;;;;8.47;3.70;;;2.60;97.30;;;;;;5011047;28;20412;-86
2022/02/08 01:40:50;;;;;;;10.93;4.23;;;2.60;97.30;;;;;;5010872;28;20965;-86
2022/02/08 01:49:15;;;;;;;11.03;4.23;;;2.60;97.30;;;;;;5010781;28;20490;-86
2022/02/08 01:51:41;;;;;;;13.53;4.67;;;2.60;97.30;;;;;;5010962;28;21050;-86
2022/02/08 01:54:06;;;;;;;10.23;4.33;;;2.60;97.30;;;;;;5010708;28;20424;-86
2022/02/08 01:56:32;;;;;;;8.70;3.67;;;2.60;97.30;;;;;;5011203;28;20452;-86
2022/02/08 01:58:58;;;;;;;13.30;3.93;;;2.60;97.30;;;;;;5010919;28;20255;-87
2022/02/08 02:01:23;;;;;;;9.97;4.20;;;2.60;97.30;;;;;;5014523;28;20174;-86
2022/02/08 02:03:49;;;;;;;8.53;4.07;;;2.60;97.30;;;;;;5013478;28;20196;-86
2022/02/08 02:06:14;;;;;;;12.17;4.17;;;2.50;97.30;;;;;;5010383;28;20758;-86
2022/02/08 02:08:40;;;;;;;11.13;4.20;;;2.50;97.30;;;;;;5010532;28;20205;-86
2022/02/08 02:11:06;;;;;;;13.77;4.10;;;2.50;97.30;;;;;;5011017;28;20185;-86
2022/02/08 02:16:03;;;;;;;14.00;4.43;;;2.50;97.30;;;;;;5012615;28;20255;-86
2022/02/08 02:18:28;;;;;;;11.20;3.70;;;2.50;97.30;;;;;;5010936;28;20826;-86
2022/02/08 02:20:54;;;;;;;15.17;5.10;;;2.50;97.30;;;;;;5011077;28;20420;-86
2022/02/08 02:23:19;;;;;;;9.37;4.00;;;2.50;97.30;;;;;;5013668;28;20185;-86
2022/02/08 02:25:45;;;;;;;6.33;3.77;;;2.50;97.30;;;;;;5011182;28;20219;-86
2022/02/08 02:28:10;;;;;;;13.63;5.17;;;2.60;97.30;;;;;;5010454;28;20292;-86
2022/02/08 02:30:36;;;;;;;8.53;4.07;;;2.60;97.30;;;;;;5011753;28;20185;-86
2022/02/08 02:33:03;;;;;;;13.43;5.07;;;2.60;97.30;;;;;;5010234;28;20304;-86
2022/02/08 02:35:29;;;;;;;7.77;4.67;;;2.60;97.30;;;;;;5013447;28;20454;-87
2022/02/08 02:37:57;;;;;;;20.00;5.30;;;2.70;97.30;;;;;;5013985;28;20420;-86
2022/02/08 02:40:24;;;;;;;15.50;7.10;;;2.70;97.30;;;;;;5015158;28;21096;-86
2022/02/08 02:42:50;;;;;;;17.37;5.03;;;2.70;97.30;;;;;;5014197;28;20431;-86
2022/02/08 02:45:16;;;;;;;12.83;4.23;;;2.80;97.30;;;;;;5014451;28;20472;-86
2022/02/08 02:47:41;;;;;;;9.37;3.83;;;2.80;97.30;;;;;;5015342;28;20415;-86
2022/02/08 02:50:09;;;;;;;5.00;3.77;;;2.80;97.30;;;;;;5013619;28;20221;-85
2022/02/08 02:52:35;;;;;;;7.60;4.40;;;2.90;97.30;;;;;;5013783;28;20184;-86
2022/02/08 02:55:01;;;;;;;9.60;4.40;;;2.90;97.30;;;;;;5013910;28;20420;-86
2022/02/08 02:57:28;;;;;;;9.60;4.13;;;2.90;97.30;;;;;;5013799;28;20442;-86
2022/02/08 03:00:09;;;;;;;12.90;4.40;;;3.00;97.30;;;;;;5013595;28;20446;-86
2022/02/08 03:05:13;;;;;;;12.10;4.70;;;3.00;97.30;;;;;;5015217;28;20463;-86
2022/02/08 03:18:37;;;;;;;9.67;5.03;;;3.10;97.30;;;;;;5014803;28;20471;-86
2022/02/08 03:21:04;;;;;;;8.87;4.30;;;3.10;97.30;;;;;;5013116;28;20424;-87
2022/02/08 03:23:30;;;;;;;13.27;3.70;;;3.20;97.30;;;;;;5014586;28;20416;-86
2022/02/08 03:25:55;;;;;;;15.27;5.30;;;3.20;97.30;;;;;;5013165;28;21065;-87
2022/02/08 03:28:21;;;;;;;8.13;4.17;;;3.20;97.30;;;;;;5013032;28;20177;-86
2022/02/08 03:30:46;;;;;;;10.73;3.80;;;3.20;97.30;;;;;;5013147;28;20185;-86
2022/02/08 03:33:12;;;;;;;7.73;4.60;;;3.30;97.30;;;;;;5012896;28;20184;-87
2022/02/08 03:35:38;;;;;;;8.87;4.93;;;3.30;97.30;;;;;;5012826;28;20254;-86
2022/02/08 03:38:06;;;;;;;16.50;5.40;;;3.30;97.30;;;;;;5014301;28;20177;-86
2022/02/08 03:43:13;;;;;;;8.40;3.90;;;3.40;97.30;;;;;;5014180;28;20469;-86
2022/02/08 03:45:40;;;;;;;12.60;4.70;;;3.40;97.30;;;;;;5012583;28;20864;-86
2022/02/08 03:48:06;;;;;;;11.93;4.33;;;3.40;97.30;;;;;;5013130;28;20516;-86
2022/02/08 03:50:32;;;;;;;7.47;3.83;;;3.40;97.30;;;;;;5012687;28;20436;-86
2022/02/08 03:52:58;;;;;;;11.03;3.83;;;3.40;97.30;;;;;;5012791;28;20416;-85
2022/02/08 03:55:23;;;;;;;10.20;3.70;;;3.40;97.30;;;;;;5012640;28;20479;-86
2022/02/08 03:57:49;;;;;;;12.50;4.13;;;3.40;97.30;;;;;;5012792;28;20186;-86
2022/02/08 04:00:16;;;;;;;9.40;4.30;;;3.50;97.30;;;;;;5017062;28;20216;-86
2022/02/08 04:02:46;;;;;;;9.67;3.57;;;3.50;97.30;;;;;;5012792;28;20181;-86
2022/02/08 04:07:46;;;;;;;10.70;3.80;;;3.50;97.30;;;;;;5014166;28;20816;-86
2022/02/08 04:10:19;;;;;;;7.93;4.27;;;3.60;97.30;;;;;;5012636;28;20958;-86
2022/02/08 04:15:25;;;;;;;10.30;4.27;;;3.70;97.30;;;;;;5014209;28;20933;-86
2022/02/08 04:36:42;;;;;;;13.20;5.47;;;4.00;97.30;;;;;;5024409;28;20405;-84
2022/02/08 04:49:18;;;;;;;11.27;3.50;;;4.10;97.30;;;;;;5013647;28;20467;-86
2022/02/08 04:51:58;;;;;;;6.10;3.33;;;4.10;97.30;;;;;;5011749;28;20811;-85
2022/02/08 04:54:41;;;;;;;13.67;3.33;;;4.10;97.30;;;;;;5011946;28;20418;-86
2022/02/08 05:00:10;;;;;;;7.40;2.80;;;4.20;97.30;;;;;;5013458;28;20436;-86
2022/02/08 05:43:10;;;;;;;5.87;2.70;;;4.30;97.30;;;;;;5012815;28;20889;-86
2022/02/08 05:45:59;;;;;;;4.77;2.60;;;4.30;97.30;;;;;;5012024;28;20448;-85
2022/02/08 05:48:32;;;;;;;7.60;2.30;;;4.40;97.30;;;;;;5012043;28;20778;-86
2022/02/08 05:51:05;;;;;;;6.40;2.63;;;4.40;97.30;;;;;;5010583;28;20420;-85
2022/02/08 05:53:41;;;;;;;8.90;2.63;;;4.50;97.30;;;;;;5011161;28;20435;-86
2022/02/08 05:56:07;;;;;;;3.87;2.40;;;4.50;97.30;;;;;;5011547;28;20472;-85
2022/02/08 05:58:32;;;;;;;6.40;2.67;;;4.60;97.30;;;;;;5014843;28;20491;-85
2022/02/08 06:01:02;;;;;;;11.90;3.40;;;4.60;97.30;;;;;;5011230;28;20182;-85
2022/02/08 06:03:31;;;;;;;9.17;2.97;;;4.60;97.30;;;;;;5011396;28;20174;-85
2022/02/08 06:05:57;;;;;;;11.37;2.80;;;4.60;97.30;;;;;;5009311;28;20460;-85
2022/02/08 06:08:23;;;;;;;6.33;2.90;;;4.60;97.30;;;;;;5001175;28;20520;-86
2022/02/08 06:10:52;;;;;;;13.33;2.87;;;4.60;97.30;;;;;;4996106;28;20507;-85
2022/02/08 06:13:20;;;;;;;9.23;2.43;;;4.60;97.30;;;;;;4996716;28;20170;-85
2022/02/08 06:15:48;;;;;;;17.57;3.03;;;4.70;97.30;;;;;;5011682;28;20432;-85
2022/02/08 06:18:13;;;;;;;16.63;2.43;;;4.60;97.30;;;;;;5011977;28;20479;-86
2022/02/08 06:20:39;;;;;;;6.33;2.33;;;4.60;97.30;;;;;;5011928;28;20417;-86
2022/02/08 06:23:05;;;;;;;6.00;2.60;;;4.60;97.30;;;;;;5011731;28;20668;-85
2022/02/08 06:25:30;;;;;;;8.33;2.73;;;4.60;97.30;;;;;;5011718;28;20355;-84
2022/02/08 06:27:56;;;;;;;4.70;2.37;;;4.60;97.30;;;;;;5012933;28;20174;-85
2022/02/08 06:30:23;;;;;;;8.67;3.87;;;4.60;97.30;;;;;;5022434;28;20193;-86
2022/02/08 06:32:53;;;;;;;7.93;2.87;;;4.60;97.30;;;;;;5014550;28;20232;-85
2022/02/08 06:35:25;;;;;;;6.80;2.63;;;4.60;97.30;;;;;;5015794;28;20444;-84
2022/02/08 06:37:51;;;;;;;9.53;2.67;;;4.60;97.30;;;;;;5001983;28;20425;-87
2022/02/08 06:40:17;;;;;;;12.07;2.60;;;4.60;97.30;;;;;;4994830;28;20570;-87
2022/02/08 06:42:44;;;;;;;10.07;2.77;;;4.60;97.30;;;;;;4995743;28;20425;-87
2022/02/08 06:45:11;;;;;;;6.57;2.57;;;4.50;97.30;;;;;;5009685;28;20463;-87
2022/02/08 06:47:38;;;;;;;12.27;3.53;;;4.50;97.30;;;;;;5016010;28;20459;-87
2022/02/08 06:50:05;;;;;;;7.07;2.77;;;4.50;97.30;;;;;;5015025;28;20436;-87
2022/02/08 06:52:30;;;;;;;12.40;3.13;;;4.50;97.30;;;;;;5015406;28;20427;-87
2022/02/08 06:54:56;;;;;;;12.43;2.87;;;4.50;97.30;;;;;;5014628;28;20494;-88
2022/02/08 06:57:23;;;;;;;7.00;2.60;;;4.60;97.30;;;;;;5015514;28;20560;-88
2022/02/08 06:59:52;;;;;;;5.60;2.53;;;4.60;97.30;;;;;;5014231;28;20207;-86
2022/02/08 07:02:18;;;;;;;5.03;2.40;;;4.60;97.30;;;;;;5014547;28;20775;-87
2022/02/08 07:04:43;;;;;;;4.03;2.60;;;4.60;97.30;;;;;;5014546;28;20456;-87
2022/02/08 07:07:12;;;;;;;8.23;2.90;;;4.60;97.30;;;;;;4998449;28;20503;-87
2022/02/08 07:09:38;;;;;;;8.23;2.57;;;4.60;97.30;;;;;;5018899;28;20729;-87
2022/02/08 07:12:04;;;;;;;22.33;3.83;;;4.60;97.30;;;;;;5014072;28;20419;-87
2022/02/08 07:14:32;;;;;;;2.63;2.43;;;4.70;97.30;;;;;;5014210;28;20428;-87
2022/02/08 07:16:58;;;;;;;5.00;2.40;;;4.70;97.30;;;;;;5029413;28;21208;-86
2022/02/08 07:19:23;;;;;;;8.70;2.63;;;4.70;97.30;;;;;;5013546;28;20511;-87
2022/02/08 07:21:50;;;;;;;4.07;2.20;;;4.70;97.30;;;;;;5014033;28;20498;-85
2022/02/08 07:24:16;;;;;;;11.47;2.90;;;4.80;97.30;;;;;;5013848;28;20177;-87
2022/02/08 07:26:42;;;;;;;11.80;2.90;;;4.80;97.30;;;;;;5013404;28;20892;-86
2022/02/08 07:29:08;;;;;;;6.30;2.77;;;4.80;97.30;;;;;;5013495;28;20468;-88
2022/02/08 07:31:39;;;;;;;8.03;2.60;;;4.90;97.30;;;;;;5013302;28;20497;-87
2022/02/08 07:34:27;;;;;;;4.60;2.30;;;4.90;97.30;;;;;;5013164;28;20176;-87
2022/02/08 07:37:04;;;;;;;4.97;2.40;;;4.90;97.30;;;;;;5013216;28;20959;-86
2022/02/08 07:39:49;;;;;;;5.57;2.43;;;5.00;97.30;;;;;;5013934;28;20445;-87
2022/02/08 07:42:14;;;;;;;6.37;2.57;;;4.90;97.30;;;;;;5014457;28;20456;-87
2022/02/08 07:44:40;;;;;;;6.97;2.43;;;4.90;97.30;;;;;;5013000;28;20475;-86
2022/02/08 07:47:05;;;;;;;6.00;2.70;;;4.90;97.30;;;;;;5014505;28;20218;-87
2022/02/08 07:49:33;;;;;;;7.97;3.07;;;4.90;97.30;;;;;;5013096;28;20200;-87
2022/02/08 07:51:59;;;;;;;8.07;2.90;;;4.90;97.30;;;;;;5013221;28;20173;-88
2022/02/08 07:54:24;;;;;;;4.60;2.40;;;4.90;97.30;;;;;;5016580;28;20407;-87
2022/02/08 07:56:50;;;;;;;4.63;2.30;;;4.90;97.30;;;;;;5015625;28;20412;-87
2022/02/08 07:59:16;;;;;;;4.30;2.10;;;4.90;97.30;;;;;;5013078;28;20277;-86
2022/02/08 08:01:41;;;;;;;7.23;2.40;;;4.90;97.30;;;;;;5012910;28;20181;-88
2022/02/08 08:04:07;;;;;;;3.77;2.20;;;5.00;97.30;;;;;;5012668;28;20192;-87
2022/02/08 08:06:33;;;;;;;7.63;2.20;;;5.00;97.30;;;;;;5013706;28;20173;-86
2022/02/08 08:08:58;;;;;;;4.80;2.90;;;5.00;97.30;;;;;;5013637;28;20193;-87
2022/02/08 08:11:24;;;;;;;7.93;2.33;;;5.10;97.30;;;;;;5012984;28;20635;-87
2022/02/08 08:14:00;;;;;;;3.40;2.53;;;5.10;97.30;;;;;;5012783;28;20177;-87
2022/02/08 08:19:18;;;;;;;10.27;3.30;;;5.10;97.30;;;;;;5014252;28;20443;-87
2022/02/08 08:21:44;;;;;;;7.77;2.20;;;5.20;97.30;;;;;;5012871;28;20420;-87
2022/02/08 08:24:09;;;;;;;4.03;2.10;;;5.20;97.30;;;;;;5012832;28;20417;-87
2022/02/08 08:26:37;;;;;;;6.53;2.50;;;5.30;97.30;;;;;;5012831;28;20207;-87
2022/02/08 08:29:03;;;;;;;4.63;1.87;;;5.40;97.30;;;;;;5012368;28;20468;-88
2022/02/08 08:31:28;;;;;;;12.00;2.20;;;5.40;97.30;;;;;;5011875;28;20416;-86
2022/02/08 08:33:54;;;;;;;6.80;2.27;;;5.50;97.30;;;;;;5012854;28;20486;-87
2022/02/08 08:36:21;;;;;;;14.87;3.23;;;5.50;97.30;;;;;;5012997;28;20185;-87
2022/02/08 08:38:48;;;;;;;3.80;2.07;;;5.60;97.30;;;;;;5013573;28;20667;-87
2022/02/08 08:41:31;;;;;;;8.00;1.47;;;5.60;97.30;;;;;;5012789;28;20556;-87
2022/02/08 08:51:52;;;;;;;9.17;2.60;;;5.80;97.30;;;;;;5013668;28;20880;-87
2022/02/08 08:54:19;;;;;;;15.23;2.17;;;5.90;97.30;;;;;;5012155;28;20448;-88
2022/02/08 08:56:46;;;;;;;9.60;2.43;;;5.90;97.30;;;;;;5013168;28;20467;-88
2022/02/08 08:59:13;;;;;;;8.17;2.00;;;5.90;97.30;;;;;;5011641;28;20531;-88
2022/02/08 09:01:39;;;;;;;6.63;2.53;;;6.00;97.30;;;;;;5011761;28;20458;-88
2022/02/08 09:04:06;;;;;;;7.17;2.30;;;6.00;97.30;;;;;;5011690;28;20416;-88
2022/02/08 09:06:34;;;;;;;8.10;2.13;;;6.00;97.30;;;;;;5013219;28;20471;-88
2022/02/08 09:09:00;;;;;;;5.70;2.17;;;6.10;97.30;;;;;;5012153;28;20505;-87
2022/02/08 09:16:28;;;;;;;7.50;2.00;;;6.10;97.30;;;;;;5013433;28;20459;-88
2022/02/08 09:24:15;;;;;;;3.50;1.67;;;6.10;97.30;;;;;;5012877;28;20443;-87
2022/02/08 09:29:38;;;;;;;4.10;1.77;;;6.20;97.30;;;;;;5013043;28;20487;-88
2022/02/08 09:32:14;;;;;;;3.37;1.20;;;6.20;97.30;;;;;;5013334;28;20392;-88
2022/02/08 09:34:41;;;;;;;2.23;1.43;;;6.20;97.30;;;;;;5012404;28;20420;-87
2022/02/08 09:37:11;;;;;;;3.77;2.20;;;6.30;97.30;;;;;;5012328;28;20435;-88
2022/02/08 09:39:38;;;;;;;3.63;1.90;;;6.30;97.30;;;;;;5013416;28;20436;-87
2022/02/08 09:42:06;;;;;;;5.87;2.13;;;6.30;97.30;;;;;;5011769;28;20459;-86
2022/02/08 09:44:34;;;;;;;4.03;2.23;;;6.30;97.30;;;;;;5016500;28;20467;-87
2022/02/08 09:47:02;;;;;;;6.57;2.77;;;6.40;97.30;;;;;;5017341;28;20408;-86
2022/02/08 09:49:28;;;;;;;5.00;2.50;;;6.40;97.30;;;;;;5015755;28;20447;-88
2022/02/08 09:51:55;;;;;;;3.13;1.67;;;6.30;97.30;;;;;;5020179;28;20425;-87
2022/02/08 09:54:22;;;;;;;5.17;1.73;;;6.40;97.30;;;;;;5016417;28;20960;-88
2022/02/08 09:56:47;;;;;;;3.60;1.90;;;6.40;97.30;;;;;;5015595;28;20432;-88
2022/02/08 09:59:13;;;;;;;2.83;1.87;;;6.40;97.30;;;;;;5016393;28;20427;-88
2022/02/08 10:01:39;;;;;;;6.93;3.10;;;6.50;97.30;;;;;;5016740;28;20204;-89
2022/02/08 10:04:05;;;;;;;4.40;2.10;;;6.50;97.30;;;;;;5015283;28;20551;-89
2022/02/08 10:06:31;;;;;;;1.83;1.70;;;6.50;97.30;;;;;;5015432;28;20698;-88
2022/02/08 10:09:02;;;;;;;7.50;2.33;;;6.50;97.30;;;;;;5015005;28;20526;-88
2022/02/08 10:11:36;;;;;;;4.70;2.13;;;6.50;97.30;;;;;;5015074;28;20447;-87
2022/02/08 10:14:15;;;;;;;2.90;1.80;;;6.50;97.30;;;;;;5014759;28;20416;-89
2022/02/08 10:22:38;;;;;;;5.77;2.30;;;6.60;97.30;;;;;;5016525;28;20396;-86
2022/02/08 10:25:10;;;;;;;3.43;1.73;;;6.70;97.30;;;;;;5014798;28;21042;-87
2022/02/08 10:30:43;;;;;;;7.93;1.90;;;6.80;97.30;;;;;;5013562;28;20431;-87
2022/02/08 10:38:57;;;;;;;5.60;1.90;;;7.00;97.30;;;;;;5013985;28;20863;-85
2022/02/08 10:41:22;;;;;;;2.70;1.40;;;7.20;97.30;;;;;;5032323;28;20478;-87
2022/02/08 10:44:05;;;;;;;4.23;1.80;;;7.30;97.30;;;;;;5011745;28;20910;-88
2022/02/08 10:46:32;;;;;;;3.40;2.03;;;7.30;97.30;;;;;;5011867;28;20683;-89
2022/02/08 10:49:05;;;;;;;4.27;1.80;;;7.40;97.30;;;;;;5012885;28;20436;-89
2022/02/08 10:51:35;;;;;;;2.90;1.70;;;7.50;97.30;;;;;;5013308;28;20839;-87
2022/02/08 10:54:07;;;;;;;6.83;2.00;;;7.50;97.30;;;;;;5012711;28;20927;-86
2022/02/08 10:56:36;;;;;;;4.13;2.30;;;7.60;97.30;;;;;;5013724;28;20519;-88
2022/02/08 10:59:19;;;;;;;4.43;2.20;;;7.80;97.30;;;;;;5031715;28;20456;-86
2022/02/08 11:01:58;;;;;;;3.77;2.13;;;7.90;97.30;;;;;;5028464;28;20431;-86
2022/02/08 11:10:34;;;;;;;4.50;2.20;;;8.10;97.30;;;;;;5015113;28;20450;-88
2022/02/08 11:15:48;;;;;;;6.87;2.53;;;8.40;97.30;;;;;;4995896;28;20416;-87
2022/02/08 11:26:36;;;;;;;2.57;1.70;;;8.20;97.30;;;;;;5014902;28;21033;-87
2022/02/08 11:29:44;;;;;;;2.47;1.73;;;8.20;97.30;;;;;;5013593;28;20444;-88
2022/02/08 11:43:37;;;;;;;5.40;2.00;;;8.40;97.30;;;;;;5014763;28;20399;-85
2022/02/08 11:46:12;;;;;;;3.07;1.60;;;8.40;97.30;;;;;;5014082;28;20475;-87
2022/02/08 11:54:19;;;;;;;3.27;1.87;;;8.10;97.30;;;;;;5014463;28;20195;-87
2022/02/08 12:07:28;;;;;;;9.30;2.27;;;8.00;97.30;;;;;;5016926;28;20566;-87
2022/02/08 12:48:41;;;;;;;3.47;1.80;;;8.80;97.30;;;;;;5012954;28;20424;-87
2022/02/08 13:32:53;;;;;;;2.20;1.60;;;8.70;97.30;;;;;;5012853;28;20770;-87
2022/02/08 14:18:44;;;;;;;3.00;1.80;;;8.90;97.30;;;;;;5012151;28;20876;-86
2022/02/08 14:21:25;;;;;;;2.80;2.00;;;8.90;97.30;;;;;;5011288;28;20435;-85
2022/02/08 14:29:34;;;;;;;4.83;2.00;;;8.90;97.30;;;;;;5012331;28;21009;-86
2022/02/08 14:35:02;;;;;;;2.03;1.70;;;8.90;97.30;;;;;;4996545;28;20915;-87
2022/02/08 14:37:29;;;;;;;4.60;2.27;;;8.90;97.30;;;;;;4996256;28;20421;-86
2022/02/08 14:49:03;;;;;;;3.23;2.00;;;8.90;97.30;;;;;;4994305;28;20445;-86
2022/02/08 15:00:04;;;;;;;3.00;1.83;;;8.90;97.30;;;;;;4996266;28;20482;-85
2022/02/08 15:10:00;;;;;;;4.00;2.83;;;8.90;97.30;;;;;;5015056;28;20431;-87
2022/02/08 15:12:30;;;;;;;10.40;3.30;;;8.90;97.30;;;;;;5013734;28;20427;-84
2022/02/08 15:15:15;;;;;;;4.93;3.30;;;8.90;97.30;;;;;;5013707;28;20956;-85
2022/02/08 15:17:40;;;;;;;6.00;2.40;;;8.90;97.30;;;;;;5013591;28;20408;-86
2022/02/08 15:20:07;;;;;;;6.23;2.37;;;8.90;97.30;;;;;;5013614;28;20436;-87
2022/02/08 15:22:33;;;;;;;5.90;2.70;;;8.90;97.30;;;;;;5013163;28;20203;-85
2022/02/08 15:25:00;;;;;;;11.57;4.10;;;8.90;97.30;;;;;;5013635;28;20873;-87
2022/02/08 15:27:27;;;;;;;3.97;2.33;;;8.90;97.30;;;;;;5014609;28;20275;-86
2022/02/08 15:29:55;;;;;;;5.77;2.70;;;8.90;97.30;;;;;;5013442;28;20433;-86
2022/02/08 15:32:21;;;;;;;3.37;2.57;;;8.90;97.30;;;;;;5013728;28;20416;-87
2022/02/08 15:34:48;;;;;;;5.57;2.80;;;8.90;97.30;;;;;;5013741;28;20911;-86
2022/02/08 15:37:21;;;;;;;4.87;2.40;;;8.90;97.30;;;;;;5014730;28;20435;-87
2022/02/08 15:39:51;;;;;;;10.10;3.07;;;8.90;97.30;;;;;;5011631;28;20440;-86
2022/02/08 15:42:27;;;;;;;3.83;3.13;;;8.90;97.30;;;;;;5013823;28;20459;-87
2022/02/08 15:45:53;;;;;;;6.40;2.90;;;8.90;97.30;;;;;;5017350;28;20754;-86
2022/02/08 15:47:54;;;;;;;3.30;2.70;;;9.10;97.30;;;;;;5008599;28;20962;-86
2022/02/08 15:50:35;;;;;;;5.23;2.60;;;9.20;97.30;;;;;;5011009;28;20527;-87
2022/02/08 15:56:16;;;;;;;4.40;2.43;;;9.00;97.30;;;;;;5026991;28;20423;-86
2022/02/08 16:05:07;;;;;;;9.67;2.93;;;8.90;97.30;;;;;;5013113;28;20474;-86
2022/02/08 16:07:04;;;;;;;9.77;2.60;;;8.90;97.30;;;;;;5012198;28;20460;-86
2022/02/08 16:12:40;;;;;;;3.50;2.80;;;8.90;97.30;;;;;;5007941;28;20403;-86
2022/02/08 16:15:23;;;;;;;4.57;2.90;;;8.90;97.30;;;;;;4995319;28;20503;-86
2022/02/08 16:18:01;;;;;;;5.83;2.90;;;8.80;97.30;;;;;;5013916;28;20416;-85
2022/02/08 16:23:39;;;;;;;3.30;2.50;;;8.80;97.30;;;;;;5013706;28;20427;-86
2022/02/08 16:26:35;;;;;;;5.30;3.10;;;8.80;97.30;;;;;;5028490;28;20459;-86
2022/02/08 16:52:04;;;;;;;10.43;4.20;;;8.80;97.30;;;;;;5013432;28;20412;-85
2022/02/08 16:58:39;;;;;;;8.53;4.50;;;8.80;97.30;;;;;;5007449;28;20181;-86
2022/02/08 17:01:12;;;;;;;9.70;4.70;;;8.80;97.30;;;;;;5008320;28;20432;-87
2022/02/08 17:03:44;;;;;;;11.27;5.43;;;8.80;97.30;;;;;;5011151;28;21139;-86
2022/02/08 17:06:10;;;;;;;9.77;4.87;;;8.90;97.30;;;;;;5011923;28;20518;-85
2022/02/08 17:08:36;;;;;;;9.87;4.97;;;8.90;97.30;;;;;;5012084;28;20432;-85
2022/02/08 17:11:03;;;;;;;13.10;5.43;;;8.90;97.30;;;;;;5012292;28;20430;-86
2022/02/08 17:13:49;;;;;;;11.87;6.07;;;8.90;97.30;;;;;;5012095;28;20958;-86
2022/02/08 17:16:29;;;;;;;10.87;4.50;;;8.90;97.30;;;;;;5010405;28;20432;-85
2022/02/08 17:19:23;;;;;;;8.40;4.70;;;8.90;97.30;;;;;;5011655;28;20436;-86
2022/02/08 17:48:28;;;;;;;9.53;3.80;;;8.90;97.30;;;;;;5012373;28;20424;-86
2022/02/08 17:50:54;;;;;;;7.77;3.90;;;8.90;97.30;;;;;;5011243;28;20726;-84
2022/02/08 17:53:22;;;;;;;6.90;3.70;;;8.90;97.30;;;;;;5011557;28;20448;-85
2022/02/08 17:55:47;;;;;;;7.00;3.30;;;8.90;97.30;;;;;;5011249;28;20426;-85
2022/02/08 17:58:15;;;;;;;7.03;3.53;;;8.90;97.30;;;;;;5011104;28;20990;-85
2022/02/08 18:00:41;;;;;;;11.40;3.43;;;8.90;97.30;;;;;;5011093;28;20272;-85
2022/02/08 18:03:06;;;;;;;5.10;3.67;;;8.90;97.30;;;;;;5010946;28;21045;-86
2022/02/08 18:05:32;;;;;;;5.57;3.23;;;8.90;97.30;;;;;;5014206;28;20695;-85
2022/02/08 18:07:58;;;;;;;8.50;4.00;;;8.90;97.30;;;;;;5015853;28;20648;-85
2022/02/08 18:10:25;;;;;;;9.27;3.80;;;8.90;97.30;;;;;;5030868;28;20278;-85
2022/02/08 18:12:54;;;;;;;5.40;3.33;;;8.90;97.30;;;;;;5031615;28;20180;-85
2022/02/08 18:15:22;;;;;;;5.57;3.63;;;8.90;97.30;;;;;;5015513;28;20863;-84
2022/02/08 18:18:35;;;;;;;9.17;3.90;;;8.90;97.30;;;;;;5031167;28;20466;-86
2022/02/08 18:20:45;;;;;;;7.40;3.80;;;8.90;97.30;;;;;;5011554;28;20443;-86
2022/02/08 18:23:37;;;;;;;6.70;3.03;;;8.90;97.30;;;;;;5014126;28;20423;-86
2022/02/08 18:56:22;;;;;;;10.40;3.90;;;9.00;97.30;;;;;;5015369;28;21033;-86
2022/02/08 19:07:26;;;;;;;9.77;4.67;;;9.00;97.30;;;;;;4954552;28;20478;-86
2022/02/08 19:10:18;;;;;;;9.50;3.63;;;9.00;97.30;;;;;;5007165;28;20463;-86
2022/02/08 19:13:10;;;;;;;7.70;4.60;;;9.00;97.30;;;;;;5014523;28;20794;-85
2022/02/08 19:15:46;;;;;;;8.87;3.70;;;9.00;97.30;;;;;;5013894;28;20416;-86
2022/02/08 19:20:55;;;;;;;9.40;6.03;;;9.00;97.30;;;;;;4998155;28;20421;-86
2022/02/08 19:23:21;;;;;;;16.13;5.47;;;9.00;97.30;;;;;;4994030;28;21015;-86
2022/02/08 19:25:46;;;;;;;7.97;3.40;;;9.00;97.30;;;;;;5011967;28;20543;-86
2022/02/08 19:28:12;;;;;;;5.43;3.47;;;9.00;97.30;;;;;;5013348;28;20268;-86
2022/02/08 19:30:37;;;;;;;10.13;4.20;;;9.00;97.30;;;;;;5013097;28;20195;-86
2022/02/08 19:33:03;;;;;;;5.00;3.50;;;9.10;97.30;;;;;;5012968;28;20542;-86
2022/02/08 19:35:29;;;;;;;9.97;4.40;;;9.10;97.30;;;;;;5013098;28;20177;-86
2022/02/08 19:37:55;;;;;;;8.90;4.40;;;9.10;97.30;;;;;;5013224;28;20951;-86
2022/02/08 19:40:21;;;;;;;7.07;4.00;;;9.10;97.30;;;;;;5012734;28;20739;-85
2022/02/08 19:42:46;;;;;;;5.33;3.77;;;9.10;97.30;;;;;;5012944;28;20459;-85
2022/02/08 19:45:24;;;;;;;7.63;4.03;;;9.10;97.30;;;;;;5019667;28;20204;-86
2022/02/08 19:47:50;;;;;;;4.97;3.53;;;9.10;97.30;;;;;;5012779;28;20173;-86
2022/02/08 19:50:16;;;;;;;8.77;4.67;;;9.00;97.30;;;;;;5012982;28;20490;-86
2022/02/08 19:52:43;;;;;;;18.57;4.10;;;9.10;97.30;;;;;;5014416;28;20277;-87
2022/02/08 19:57:47;;;;;;;8.13;4.43;;;9.10;97.30;;;;;;5020506;28;20494;-86
2022/02/08 20:00:18;;;;;;;7.17;4.30;;;9.00;97.30;;;;;;5016734;28;20443;-85
2022/02/08 20:02:49;;;;;;;9.10;4.23;;;9.00;97.30;;;;;;5015099;28;20495;-86
2022/02/08 20:05:16;;;;;;;4.83;3.30;;;9.00;97.30;;;;;;5031339;28;20494;-87
2022/02/08 20:07:42;;;;;;;5.80;3.80;;;9.00;97.30;;;;;;5015321;28;20440;-86
2022/02/08 20:10:08;;;;;;;10.93;4.77;;;9.00;97.30;;;;;;5014696;28;20440;-87
2022/02/08 20:12:34;;;;;;;11.73;3.77;;;9.00;97.30;;;;;;5013813;28;20416;-87
2022/02/08 20:14:59;;;;;;;11.00;4.53;;;9.00;97.30;;;;;;5013876;28;20918;-86
2022/02/08 20:17:26;;;;;;;10.10;4.20;;;9.10;97.30;;;;;;5012957;28;20177;-86
2022/02/08 20:19:53;;;;;;;5.77;3.90;;;9.00;97.30;;;;;;5011931;28;20201;-87
2022/02/08 20:22:20;;;;;;;7.93;4.30;;;9.00;97.30;;;;;;5012462;28;20416;-86
2022/02/08 20:24:49;;;;;;;7.40;4.17;;;9.10;97.30;;;;;;5012957;28;20421;-86
2022/02/08 20:27:38;;;;;;;8.47;4.13;;;9.00;97.30;;;;;;5011367;28;20504;-86
2022/02/08 20:30:07;;;;;;;6.13;3.33;;;9.00;97.30;;;;;;5011769;28;20950;-85
2022/02/08 20:32:34;;;;;;;8.63;3.80;;;9.00;97.30;;;;;;5012118;28;20938;-85
2022/02/08 20:34:59;;;;;;;9.03;4.50;;;9.00;97.30;;;;;;5013290;28;20419;-86
2022/02/08 20:37:26;;;;;;;7.47;4.20;;;9.00;97.30;;;;;;5012048;28;20409;-87
2022/02/08 20:39:51;;;;;;;10.50;4.17;;;9.00;97.30;;;;;;5011494;28;20248;-87
2022/02/08 20:42:24;;;;;;;8.63;4.53;;;9.10;97.30;;;;;;5011861;28;20464;-86
2022/02/08 20:44:49;;;;;;;7.47;4.80;;;9.10;97.30;;;;;;5011204;28;20592;-86